Terminal Aerodrome Forecast
Issued by NWS

Home | Current Version | Previous Version | Text Only | Print | Product List | Glossary On
Versions: 1 2 3 4 5 6 7 8 9 10 11 12 13 14 15 16 17 18 19 20 21 22 23 24 25 26 27 28 29
000
FTUS42 KJAX 222320
TAFVQQ
TAF
KVQQ 222320Z 2300/2324 09006KT P6SM VCSH BKN040 BKN120
     FM230200 VRB03KT P6SM BKN250
     FM231300 18008KT P6SM BKN250
     FM231800 16008G12KT P6SM FEW030 SCT250=

USA.gov is the U.S. government's official web portal to all federal, state and local government web resources and services.